sensor_id;sensor_type;location;lat;lon;timestamp;pressure;altitude;pressure_sealevel;temperature;humidity
32324;BME280;25666;44.350;9.222;2023-09-19T00:00:57;101414.75;;;24.05;100.00
32324;BME280;25666;44.350;9.222;2023-09-19T00:03:23;101404.63;;;24.00;100.00
32324;BME280;25666;44.350;9.222;2023-09-19T00:05:50;101403.41;;;24.02;100.00
32324;BME280;25666;44.350;9.222;2023-09-19T00:08:16;101404.59;;;24.04;100.00
32324;BME280;25666;44.350;9.222;2023-09-19T00:10:42;101412.75;;;24.02;100.00
32324;BME280;25666;44.350;9.222;2023-09-19T00:13:08;101413.50;;;24.06;100.00
32324;BME280;25666;44.350;9.222;2023-09-19T00:15:43;101411.44;;;24.07;100.00
32324;BME280;25666;44.350;9.222;2023-09-19T00:18:14;101420.44;;;24.05;100.00
32324;BME280;25666;44.350;9.222;2023-09-19T00:20:41;101417.19;;;24.03;100.00
32324;BME280;25666;44.350;9.222;2023-09-19T00:23:07;101408.28;;;24.01;100.00
32324;BME280;25666;44.350;9.222;2023-09-19T00:25:36;101405.44;;;24.01;100.00
32324;BME280;25666;44.350;9.222;2023-09-19T00:28:06;101402.59;;;24.01;100.00
32324;BME280;25666;44.350;9.222;2023-09-19T00:30:33;101406.63;;;24.04;100.00
32324;BME280;25666;44.350;9.222;2023-09-19T00:32:59;101408.66;;;24.03;100.00
32324;BME280;25666;44.350;9.222;2023-09-19T00:35:26;101401.34;;;24.06;100.00
32324;BME280;25666;44.350;9.222;2023-09-19T00:37:53;101411.94;;;24.02;100.00
32324;BME280;25666;44.350;9.222;2023-09-19T00:40:19;101411.13;;;24.01;100.00
32324;BME280;25666;44.350;9.222;2023-09-19T00:42:47;101407.44;;;24.04;100.00
32324;BME280;25666;44.350;9.222;2023-09-19T00:45:16;101396.50;;;24.03;100.00
32324;BME280;25666;44.350;9.222;2023-09-19T00:47:48;101396.41;;;24.06;100.00
32324;BME280;25666;44.350;9.222;2023-09-19T00:50:17;101393.22;;;24.04;100.00
32324;BME280;25666;44.350;9.222;2023-09-19T00:52:44;101400.06;;;24.07;100.00
32324;BME280;25666;44.350;9.222;2023-09-19T00:55:10;101394.84;;;24.05;100.00
32324;BME280;25666;44.350;9.222;2023-09-19T00:57:38;101396.41;;;24.06;100.00
32324;BME280;25666;44.350;9.222;2023-09-19T01:00:06;101390.84;;;23.99;100.00
32324;BME280;25666;44.350;9.222;2023-09-19T01:02:34;101394.44;;;24.03;100.00
32324;BME280;25666;44.350;9.222;2023-09-19T01:05:00;101396.41;;;24.06;100.00
32324;BME280;25666;44.350;9.222;2023-09-19T01:07:30;101389.94;;;24.06;100.00
32324;BME280;25666;44.350;9.222;2023-09-19T01:10:02;101399.34;;;24.03;100.00
32324;BME280;25666;44.350;9.222;2023-09-19T01:23:53;101403.44;;;23.98;100.00
32324;BME280;25666;44.350;9.222;2023-09-19T01:29:33;101399.38;;;23.99;100.00
32324;BME280;25666;44.350;9.222;2023-09-19T01:32:04;101388.47;;;23.94;100.00
32324;BME280;25666;44.350;9.222;2023-09-19T01:34:52;101386.81;;;23.96;100.00
32324;BME280;25666;44.350;9.222;2023-09-19T01:37:20;101388.41;;;23.97;100.00
32324;BME280;25666;44.350;9.222;2023-09-19T01:40:03;101390.50;;;23.93;100.00
32324;BME280;25666;44.350;9.222;2023-09-19T01:47:53;101384.31;;;24.02;100.00
32324;BME280;25666;44.350;9.222;2023-09-19T01:50:59;101384.41;;;23.95;100.00
32324;BME280;25666;44.350;9.222;2023-09-19T01:54:01;101391.72;;;23.96;100.00
32324;BME280;25666;44.350;9.222;2023-09-19T01:56:53;101383.53;;;23.98;100.00
32324;BME280;25666;44.350;9.222;2023-09-19T01:59:26;101388.41;;;23.97;100.00
32324;BME280;25666;44.350;9.222;2023-09-19T02:01:56;101388.78;;;23.99;100.00
32324;BME280;25666;44.350;9.222;2023-09-19T02:04:22;101388.06;;;23.95;100.00
32324;BME280;25666;44.350;9.222;2023-09-19T02:06:47;101390.03;;;23.98;100.00
32324;BME280;25666;44.350;9.222;2023-09-19T02:09:14;101397.00;;;23.94;100.00
32324;BME280;25666;44.350;9.222;2023-09-19T02:11:40;101392.56;;;23.93;100.00
32324;BME280;25666;44.350;9.222;2023-09-19T02:14:07;101399.84;;;23.94;100.00
32324;BME280;25666;44.350;9.222;2023-09-19T02:16:34;101397.75;;;23.98;100.00
32324;BME280;25666;44.350;9.222;2023-09-19T02:19:00;101394.88;;;24.02;100.00
32324;BME280;25666;44.350;9.222;2023-09-19T02:21:26;101392.13;;;23.94;100.00
32324;BME280;25666;44.350;9.222;2023-09-19T02:23:55;101386.47;;;23.91;100.00
32324;BME280;25666;44.350;9.222;2023-09-19T02:26:21;101393.00;;;23.88;100.00
32324;BME280;25666;44.350;9.222;2023-09-19T02:28:47;101394.69;;;23.85;100.00
32324;BME280;25666;44.350;9.222;2023-09-19T02:31:12;101392.16;;;23.91;100.00
32324;BME280;25666;44.350;9.222;2023-09-19T02:33:38;101389.81;;;23.86;100.00
32324;BME280;25666;44.350;9.222;2023-09-19T02:36:04;101389.38;;;23.87;100.00
32324;BME280;25666;44.350;9.222;2023-09-19T02:38:30;101386.53;;;23.87;100.00
32324;BME280;25666;44.350;9.222;2023-09-19T02:40:55;101386.97;;;23.86;100.00
32324;BME280;25666;44.350;9.222;2023-09-19T02:43:22;101389.38;;;23.87;100.00
32324;BME280;25666;44.350;9.222;2023-09-19T02:45:48;101396.34;;;23.83;100.00
32324;BME280;25666;44.350;9.222;2023-09-19T02:48:20;101399.56;;;23.85;100.00
32324;BME280;25666;44.350;9.222;2023-09-19T02:50:49;101401.19;;;23.86;100.00
32324;BME280;25666;44.350;9.222;2023-09-19T02:53:15;101389.41;;;23.84;100.00
32324;BME280;25666;44.350;9.222;2023-09-19T02:55:40;101396.31;;;23.86;100.00
32324;BME280;25666;44.350;9.222;2023-09-19T02:58:07;101394.28;;;23.87;100.00
32324;BME280;25666;44.350;9.222;2023-09-19T03:00:39;101391.44;;;23.87;100.00
32324;BME280;25666;44.350;9.222;2023-09-19T03:03:08;101397.94;;;23.84;100.00
32324;BME280;25666;44.350;9.222;2023-09-19T03:05:34;101392.31;;;23.80;100.00
32324;BME280;25666;44.350;9.222;2023-09-19T03:08:00;101398.78;;;23.81;100.00
32324;BME280;25666;44.350;9.222;2023-09-19T03:10:26;101401.63;;;23.81;100.00
32324;BME280;25666;44.350;9.222;2023-09-19T03:12:55;101400.00;;;23.83;100.00
32324;BME280;25666;44.350;9.222;2023-09-19T03:15:20;101389.41;;;23.84;100.00
32324;BME280;25666;44.350;9.222;2023-09-19T03:17:49;101387.41;;;23.81;100.00
32324;BME280;25666;44.350;9.222;2023-09-19T03:20:19;101379.69;;;23.81;100.00
32324;BME280;25666;44.350;9.222;2023-09-19T03:22:47;101382.94;;;23.83;100.00
32324;BME280;25666;44.350;9.222;2023-09-19T03:25:15;101380.13;;;23.80;100.00
32324;BME280;25666;44.350;9.222;2023-09-19T03:27:45;101384.19;;;23.79;100.00
32324;BME280;25666;44.350;9.222;2023-09-19T03:30:12;101387.47;;;23.77;100.00
32324;BME280;25666;44.350;9.222;2023-09-19T03:32:46;101378.09;;;23.80;100.00
32324;BME280;25666;44.350;9.222;2023-09-19T03:35:18;101380.88;;;23.84;100.00
32324;BME280;25666;44.350;9.222;2023-09-19T03:37:45;101380.06;;;23.87;100.00
32324;BME280;25666;44.350;9.222;2023-09-19T03:40:11;101380.47;;;23.85;100.00
32324;BME280;25666;44.350;9.222;2023-09-19T03:42:41;101382.13;;;23.83;100.00
32324;BME280;25666;44.350;9.222;2023-09-19T03:45:09;101370.72;;;23.86;100.00
32324;BME280;25666;44.350;9.222;2023-09-19T03:47:41;101372.78;;;23.82;100.00
32324;BME280;25666;44.350;9.222;2023-09-19T03:50:08;101375.63;;;23.82;100.00
32324;BME280;25666;44.350;9.222;2023-09-19T03:52:36;101374.13;;;23.74;100.00
32324;BME280;25666;44.350;9.222;2023-09-19T03:55:02;101374.91;;;23.75;100.00
32324;BME280;25666;44.350;9.222;2023-09-19T03:57:29;101366.38;;;23.75;100.00
32324;BME280;25666;44.350;9.222;2023-09-19T03:59:55;101375.34;;;23.73;100.00
32324;BME280;25666;44.350;9.222;2023-09-19T04:02:21;101364.78;;;23.74;100.00
32324;BME280;25666;44.350;9.222;2023-09-19T04:04:51;101360.31;;;23.73;100.00
32324;BME280;25666;44.350;9.222;2023-09-19T04:07:17;101365.63;;;23.71;100.00
32324;BME280;25666;44.350;9.222;2023-09-19T04:09:45;101363.53;;;23.75;100.00
32324;BME280;25666;44.350;9.222;2023-09-19T04:12:11;101370.47;;;23.74;100.00
32324;BME280;25666;44.350;9.222;2023-09-19T04:14:37;101368.84;;;23.73;100.00
32324;BME280;25666;44.350;9.222;2023-09-19T04:17:04;101367.66;;;23.70;100.00
32324;BME280;25666;44.350;9.222;2023-09-19T04:19:31;101370.88;;;23.72;100.00
32324;BME280;25666;44.350;9.222;2023-09-19T04:21:56;101379.44;;;23.69;100.00
32324;BME280;25666;44.350;9.222;2023-09-19T04:24:22;101371.34;;;23.67;100.00
32324;BME280;25666;44.350;9.222;2023-09-19T04:26:48;101372.16;;;23.68;100.00
32324;BME280;25666;44.350;9.222;2023-09-19T04:29:13;101370.88;;;23.72;100.00
32324;BME280;25666;44.350;9.222;2023-09-19T04:31:39;101363.16;;;23.73;100.00
32324;BME280;25666;44.350;9.222;2023-09-19T04:34:06;101368.44;;;23.74;100.00
32324;BME280;25666;44.350;9.222;2023-09-19T04:36:31;101367.16;;;23.79;100.00
32324;BME280;25666;44.350;9.222;2023-09-19T04:38:57;101374.53;;;23.73;100.00
32324;BME280;25666;44.350;9.222;2023-09-19T04:41:23;101365.59;;;23.74;100.00
32324;BME280;25666;44.350;9.222;2023-09-19T04:43:48;101363.53;;;23.75;100.00
32324;BME280;25666;44.350;9.222;2023-09-19T04:46:16;101372.91;;;23.72;100.00
32324;BME280;25666;44.350;9.222;2023-09-19T04:48:43;101368.84;;;23.73;100.00
32324;BME280;25666;44.350;9.222;2023-09-19T04:51:09;101370.06;;;23.72;100.00
32324;BME280;25666;44.350;9.222;2023-09-19T04:53:36;101377.00;;;23.71;100.00
32324;BME280;25666;44.350;9.222;2023-09-19T04:56:02;101381.06;;;23.70;100.00
32324;BME280;25666;44.350;9.222;2023-09-19T04:58:29;101386.38;;;23.68;100.00
32324;BME280;25666;44.350;9.222;2023-09-19T05:00:55;101389.63;;;23.66;100.00
32324;BME280;25666;44.350;9.222;2023-09-19T05:03:22;101388.38;;;23.71;100.00
32324;BME280;25666;44.350;9.222;2023-09-19T05:05:48;101388.38;;;23.71;100.00
32324;BME280;25666;44.350;9.222;2023-09-19T05:08:14;101391.22;;;23.71;100.00
32324;BME280;25666;44.350;9.222;2023-09-19T05:10:40;101398.13;;;23.70;100.00
32324;BME280;25666;44.350;9.222;2023-09-19T05:13:06;101402.16;;;23.72;100.00
32324;BME280;25666;44.350;9.222;2023-09-19T05:15:33;101400.13;;;23.73;100.00
32324;BME280;25666;44.350;9.222;2023-09-19T05:17:59;101393.63;;;23.72;100.00
32324;BME280;25666;44.350;9.222;2023-09-19T05:20:24;101407.03;;;23.72;100.00
32324;BME280;25666;44.350;9.222;2023-09-19T05:23:17;101409.88;;;23.72;100.00
32324;BME280;25666;44.350;9.222;2023-09-19T05:25:46;101403.78;;;23.73;100.00
32324;BME280;25666;44.350;9.222;2023-09-19T05:28:12;101418.78;;;23.74;100.00
32324;BME280;25666;44.350;9.222;2023-09-19T05:30:40;101422.84;;;23.73;100.00
32324;BME280;25666;44.350;9.222;2023-09-19T05:33:06;101423.22;;;23.75;100.00
32324;BME280;25666;44.350;9.222;2023-09-19T05:35:33;101426.50;;;23.73;100.00
32324;BME280;25666;44.350;9.222;2023-09-19T05:37:58;101425.66;;;23.76;100.00
32324;BME280;25666;44.350;9.222;2023-09-19T05:40:25;101427.69;;;23.76;100.00
32324;BME280;25666;44.350;9.222;2023-09-19T05:42:51;101433.75;;;23.78;100.00
32324;BME280;25666;44.350;9.222;2023-09-19T05:45:17;101431.69;;;23.82;100.00
32324;BME280;25666;44.350;9.222;2023-09-19T05:47:51;101436.16;;;23.83;100.00
32324;BME280;25666;44.350;9.222;2023-09-19T05:59:10;101455.19;;;23.86;100.00
32324;BME280;25666;44.350;9.222;2023-09-19T06:01:36;101450.66;;;23.92;100.00
32324;BME280;25666;44.350;9.222;2023-09-19T06:04:02;101451.06;;;23.90;100.00
32324;BME280;25666;44.350;9.222;2023-09-19T06:06:27;101450.22;;;23.93;100.00
32324;BME280;25666;44.350;9.222;2023-09-19T06:08:53;101443.63;;;24.00;100.00
32324;BME280;25666;44.350;9.222;2023-09-19T06:11:18;101439.56;;;24.01;100.00
32324;BME280;25666;44.350;9.222;2023-09-19T06:13:46;101446.06;;;24.02;100.00
32324;BME280;25666;44.350;9.222;2023-09-19T06:16:29;101437.50;;;24.05;100.00
32324;BME280;25666;44.350;9.222;2023-09-19T06:18:55;101443.09;;;24.12;100.00
32324;BME280;25666;44.350;9.222;2023-09-19T06:21:22;101443.91;;;24.13;100.00
32324;BME280;25666;44.350;9.222;2023-09-19T06:23:48;101440.66;;;24.14;100.00
32324;BME280;25666;44.350;9.222;2023-09-19T06:26:14;101438.47;;;24.25;100.00
32324;BME280;25666;44.350;9.222;2023-09-19T06:28:40;101435.94;;;24.31;100.00
32324;BME280;25666;44.350;9.222;2023-09-19T06:31:06;101438.69;;;24.38;100.00
32324;BME280;25666;44.350;9.222;2023-09-19T06:33:38;101443.56;;;24.37;100.00
32324;BME280;25666;44.350;9.222;2023-09-19T06:36:07;101444.44;;;24.34;100.00
32324;BME280;25666;44.350;9.222;2023-09-19T06:38:33;101433.84;;;24.35;100.00
32324;BME280;25666;44.350;9.222;2023-09-19T06:41:02;101429.03;;;24.32;100.00
32324;BME280;25666;44.350;9.222;2023-09-19T06:43:31;101431.53;;;24.26;100.00
32324;BME280;25666;44.350;9.222;2023-09-19T06:45:58;101442.13;;;24.26;100.00
32324;BME280;25666;44.350;9.222;2023-09-19T06:48:24;101436.91;;;24.21;100.00
32324;BME280;25666;44.350;9.222;2023-09-19T06:50:50;101436.56;;;24.15;100.00
32324;BME280;25666;44.350;9.222;2023-09-19T06:53:18;101436.94;;;24.17;100.00
32324;BME280;25666;44.350;9.222;2023-09-19T06:55:43;101448.28;;;24.21;100.00
32324;BME280;25666;44.350;9.222;2023-09-19T06:58:10;101448.25;;;24.24;100.00
32324;BME280;25666;44.350;9.222;2023-09-19T07:00:36;101442.13;;;24.26;100.00
32324;BME280;25666;44.350;9.222;2023-09-19T07:03:07;101435.94;;;24.31;100.00
32324;BME280;25666;44.350;9.222;2023-09-19T07:05:39;101445.19;;;24.38;100.00
32324;BME280;25666;44.350;9.222;2023-09-19T07:08:06;101443.47;;;24.44;100.00
32324;BME280;25666;44.350;9.222;2023-09-19T07:10:32;101440.91;;;24.53;100.00
32324;BME280;25666;44.350;9.222;2023-09-19T07:13:05;101449.88;;;24.79;100.00
32324;BME280;25666;44.350;9.222;2023-09-19T07:15:37;101448.75;;;25.46;100.00
32324;BME280;25666;44.350;9.222;2023-09-19T07:18:12;101438.34;;;25.36;100.00
32324;BME280;25666;44.350;9.222;2023-09-19T07:20:40;101444.56;;;25.31;100.00
32324;BME280;25666;44.350;9.222;2023-09-19T07:23:11;101447.75;;;25.33;100.00
32324;BME280;25666;44.350;9.222;2023-09-19T07:25:40;101453.84;;;25.12;100.00
32324;BME280;25666;44.350;9.222;2023-09-19T07:28:06;101445.03;;;25.26;100.00
32324;BME280;25666;44.350;9.222;2023-09-19T07:30:32;101454.06;;;24.97;100.00
32324;BME280;25666;44.350;9.222;2023-09-19T07:32:58;101453.19;;;25.00;100.00
32324;BME280;25666;44.350;9.222;2023-09-19T07:35:23;101456.91;;;24.97;100.00
32324;BME280;25666;44.350;9.222;2023-09-19T07:37:49;101463.06;;;24.96;100.00
32324;BME280;25666;44.350;9.222;2023-09-19T07:40:15;101461.19;;;25.32;100.00
32324;BME280;25666;44.350;9.222;2023-09-19T07:42:41;101459.34;;;25.45;100.00
32324;BME280;25666;44.350;9.222;2023-09-19T07:45:11;101461.50;;;25.38;100.00
32324;BME280;25666;44.350;9.222;2023-09-19T07:47:50;101460.69;;;25.37;100.00
32324;BME280;25666;44.350;9.222;2023-09-19T07:50:17;101471.66;;;25.39;100.00
32324;BME280;25666;44.350;9.222;2023-09-19T07:52:50;101478.81;;;25.27;100.00
32324;BME280;25666;44.350;9.222;2023-09-19T07:55:20;101477.00;;;25.37;100.00
32324;BME280;25666;44.350;9.222;2023-09-19T07:57:49;101477.88;;;25.57;100.00
32324;BME280;25666;44.350;9.222;2023-09-19T08:00:15;101471.69;;;25.82;100.00
32324;BME280;25666;44.350;9.222;2023-09-19T08:02:41;101476.59;;;26.01;100.00
32324;BME280;25666;44.350;9.222;2023-09-19T08:05:08;101478.56;;;26.04;100.00
32324;BME280;25666;44.350;9.222;2023-09-19T08:07:38;101479.22;;;25.92;100.00
32324;BME280;25666;44.350;9.222;2023-09-19T08:10:05;101484.56;;;26.09;100.00
32324;BME280;25666;44.350;9.222;2023-09-19T08:12:34;101483.97;;;26.22;100.00
32324;BME280;25666;44.350;9.222;2023-09-19T08:15:02;101486.34;;;26.23;100.00
32324;BME280;25666;44.350;9.222;2023-09-19T08:17:28;101489.03;;;26.10;100.00
32324;BME280;25666;44.350;9.222;2023-09-19T08:19:53;101494.16;;;25.99;100.00
32324;BME280;25666;44.350;9.222;2023-09-19T08:22:20;101491.81;;;26.14;100.00
32324;BME280;25666;44.350;9.222;2023-09-19T08:24:46;101495.28;;;26.25;100.00
32324;BME280;25666;44.350;9.222;2023-09-19T08:27:13;101493.84;;;25.94;100.00
32324;BME280;25666;44.350;9.222;2023-09-19T08:29:39;101498.13;;;26.05;100.00
32324;BME280;25666;44.350;9.222;2023-09-19T08:32:04;101492.84;;;26.04;100.00
32324;BME280;25666;44.350;9.222;2023-09-19T08:34:30;101494.53;;;26.01;100.00
32324;BME280;25666;44.350;9.222;2023-09-19T08:36:59;101483.94;;;26.02;100.00
32324;BME280;25666;44.350;9.222;2023-09-19T08:39:25;101484.06;;;25.95;100.00
32324;BME280;25666;44.350;9.222;2023-09-19T08:42:01;101486.91;;;25.95;100.00
32324;BME280;25666;44.350;9.222;2023-09-19T08:44:28;101492.97;;;25.97;100.00
32324;BME280;25666;44.350;9.222;2023-09-19T08:47:01;101484.06;;;25.95;100.00
32324;BME280;25666;44.350;9.222;2023-09-19T08:52:30;101498.69;;;25.97;100.00
32324;BME280;25666;44.350;9.222;2023-09-19T08:55:01;101495.91;;;26.13;100.00
32324;BME280;25666;44.350;9.222;2023-09-19T08:57:33;101496.41;;;26.31;100.00
32324;BME280;25666;44.350;9.222;2023-09-19T09:00:02;101507.44;;;26.29;100.00
32324;BME280;25666;44.350;9.222;2023-09-19T09:02:31;101502.72;;;26.39;100.00
32324;BME280;25666;44.350;9.222;2023-09-19T09:05:00;101503.31;;;26.10;100.00
32324;BME280;25666;44.350;9.222;2023-09-19T09:07:26;101500.56;;;26.27;100.00
32324;BME280;25666;44.350;9.222;2023-09-19T09:09:54;101503.84;;;26.25;100.00
32324;BME280;25666;44.350;9.222;2023-09-19T09:12:20;101507.22;;;26.20;100.00
32324;BME280;25666;44.350;9.222;2023-09-19T09:14:46;101505.16;;;26.40;100.00
32324;BME280;25666;44.350;9.222;2023-09-19T09:17:18;101508.75;;;26.25;100.00
32324;BME280;25666;44.350;9.222;2023-09-19T09:19:46;101498.94;;;26.26;100.00
32324;BME280;25666;44.350;9.222;2023-09-19T09:22:17;101498.22;;;26.22;100.00
32324;BME280;25666;44.350;9.222;2023-09-19T09:24:58;101497.25;;;26.08;100.00
32324;BME280;25666;44.350;9.222;2023-09-19T09:27:26;101504.03;;;25.95;100.00
32324;BME280;25666;44.350;9.222;2023-09-19T09:29:53;101499.94;;;25.96;100.00
32324;BME280;25666;44.350;9.222;2023-09-19T09:32:25;101506.59;;;25.89;100.00
32324;BME280;25666;44.350;9.222;2023-09-19T09:34:59;101501.81;;;25.83;100.00
32324;BME280;25666;44.350;9.222;2023-09-19T09:37:25;101502.03;;;25.72;100.00
32324;BME280;25666;44.350;9.222;2023-09-19T09:39:58;101505.69;;;25.73;100.00
32324;BME280;25666;44.350;9.222;2023-09-19T09:42:46;101509.50;;;25.86;100.00
32324;BME280;25666;44.350;9.222;2023-09-19T09:45:22;101503.50;;;25.80;100.00
32324;BME280;25666;44.350;9.222;2023-09-19T09:48:00;101504.09;;;25.72;100.00
32324;BME280;25666;44.350;9.222;2023-09-19T09:50:31;101497.06;;;25.76;100.00
32324;BME280;25666;44.350;9.222;2023-09-19T09:56:06;101507.59;;;25.79;100.00
32324;BME280;25666;44.350;9.222;2023-09-19T09:58:52;101502.69;;;25.80;100.00
32324;BME280;25666;44.350;9.222;2023-09-19T10:01:21;101503.00;;;25.85;100.00
32324;BME280;25666;44.350;9.222;2023-09-19T10:03:57;101507.41;;;25.90;100.00
32324;BME280;25666;44.350;9.222;2023-09-19T10:06:22;101499.28;;;25.88;100.00
32324;BME280;25666;44.350;9.222;2023-09-19T10:09:07;101502.13;;;25.88;100.00
32324;BME280;25666;44.350;9.222;2023-09-19T10:11:57;101500.31;;;25.98;100.00
32324;BME280;25666;44.350;9.222;2023-09-19T10:14:30;101500.81;;;26.13;100.00
32324;BME280;25666;44.350;9.222;2023-09-19T10:16:58;101497.66;;;26.07;100.00
32324;BME280;25666;44.350;9.222;2023-09-19T10:19:46;101505.34;;;26.10;100.00
32324;BME280;25666;44.350;9.222;2023-09-19T10:22:16;101505.25;;;26.17;100.00
32324;BME280;25666;44.350;9.222;2023-09-19T10:24:47;101512.31;;;26.09;100.00
32324;BME280;25666;44.350;9.222;2023-09-19T10:27:17;101523.00;;;26.05;100.00
32324;BME280;25666;44.350;9.222;2023-09-19T10:29:45;101519.03;;;25.99;100.00
32324;BME280;25666;44.350;9.222;2023-09-19T10:32:15;101505.72;;;26.12;100.00
32324;BME280;25666;44.350;9.222;2023-09-19T10:34:46;101510.56;;;26.15;100.00
32324;BME280;25666;44.350;9.222;2023-09-19T10:37:13;101509.88;;;26.07;100.00
32324;BME280;25666;44.350;9.222;2023-09-19T10:39:46;101515.66;;;26.04;100.00
32324;BME280;25666;44.350;9.222;2023-09-19T10:42:14;101522.91;;;25.89;100.00
32324;BME280;25666;44.350;9.222;2023-09-19T10:44:42;101517.72;;;25.84;100.00
32324;BME280;25666;44.350;9.222;2023-09-19T10:47:10;101514.47;;;25.82;100.00
32324;BME280;25666;44.350;9.222;2023-09-19T10:49:44;101522.66;;;25.80;100.00
32324;BME280;25666;44.350;9.222;2023-09-19T10:52:13;101512.38;;;25.86;100.00
32324;BME280;25666;44.350;9.222;2023-09-19T10:54:46;101513.81;;;25.74;100.00
32324;BME280;25666;44.350;9.222;2023-09-19T10:57:21;101512.19;;;25.73;100.00
32324;BME280;25666;44.350;9.222;2023-09-19T11:00:08;101512.88;;;25.81;100.00
32324;BME280;25666;44.350;9.222;2023-09-19T11:05:36;101507.88;;;25.65;100.00
32324;BME280;25666;44.350;9.222;2023-09-19T11:08:09;101506.13;;;25.71;100.00
32324;BME280;25666;44.350;9.222;2023-09-19T11:10:50;101505.09;;;25.81;100.00
32324;BME280;25666;44.350;9.222;2023-09-19T11:13:26;101517.31;;;25.82;100.00
32324;BME280;25666;44.350;9.222;2023-09-19T11:26:48;101518.53;;;25.84;100.00
32324;BME280;25666;44.350;9.222;2023-09-19T11:29:30;101520.97;;;25.82;100.00
32324;BME280;25666;44.350;9.222;2023-09-19T11:31:59;101515.41;;;25.75;100.00
32324;BME280;25666;44.350;9.222;2023-09-19T11:34:38;101519.59;;;25.71;100.00
32324;BME280;25666;44.350;9.222;2023-09-19T11:39:37;101522.03;;;25.69;100.00
32324;BME280;25666;44.350;9.222;2023-09-19T11:45:07;101520.25;;;25.78;100.00
32324;BME280;25666;44.350;9.222;2023-09-19T11:47:33;101520.75;;;25.73;100.00
32324;BME280;25666;44.350;9.222;2023-09-19T11:50:01;101518.72;;;25.74;100.00
32324;BME280;25666;44.350;9.222;2023-09-19T11:52:28;101517.16;;;25.69;100.00
32324;BME280;25666;44.350;9.222;2023-09-19T11:55:00;101520.69;;;25.53;100.00
32324;BME280;25666;44.350;9.222;2023-09-19T11:57:28;101521.19;;;25.48;100.00
32324;BME280;25666;44.350;9.222;2023-09-19T11:59:55;101517.13;;;25.49;100.00
32324;BME280;25666;44.350;9.222;2023-09-19T12:02:39;101522.47;;;25.44;100.00
32324;BME280;25666;44.350;9.222;2023-09-19T12:05:08;101515.16;;;25.43;100.00
32324;BME280;25666;44.350;9.222;2023-09-19T12:07:42;101512.25;;;25.46;100.00
32324;BME280;25666;44.350;9.222;2023-09-19T12:10:11;101520.38;;;25.48;100.00
32324;BME280;25666;44.350;9.222;2023-09-19T12:12:37;101503.78;;;25.43;100.00
32324;BME280;25666;44.350;9.222;2023-09-19T12:15:03;101506.97;;;25.45;100.00
32324;BME280;25666;44.350;9.222;2023-09-19T12:17:39;101501.41;;;25.38;100.00
32324;BME280;25666;44.350;9.222;2023-09-19T12:20:08;101507.56;;;25.36;100.00
32324;BME280;25666;44.350;9.222;2023-09-19T12:22:47;101506.22;;;25.41;100.00
32324;BME280;25666;44.350;9.222;2023-09-19T12:25:15;101499.66;;;25.44;100.00
32324;BME280;25666;44.350;9.222;2023-09-19T12:27:46;101497.56;;;25.48;100.00
32324;BME280;25666;44.350;9.222;2023-09-19T12:30:13;101500.91;;;25.43;100.00
32324;BME280;25666;44.350;9.222;2023-09-19T12:32:43;101507.84;;;25.42;100.00
32324;BME280;25666;44.350;9.222;2023-09-19T12:35:10;101512.50;;;25.32;100.00
32324;BME280;25666;44.350;9.222;2023-09-19T12:37:45;101512.00;;;25.37;100.00
32324;BME280;25666;44.350;9.222;2023-09-19T12:40:14;101516.84;;;25.40;100.00
32324;BME280;25666;44.350;9.222;2023-09-19T12:42:46;101514.06;;;25.60;100.00
32324;BME280;25666;44.350;9.222;2023-09-19T12:45:12;101516.22;;;25.76;100.00
32324;BME280;25666;44.350;9.222;2023-09-19T12:47:40;101510.25;;;25.90;100.00
32324;BME280;25666;44.350;9.222;2023-09-19T12:50:13;101518.09;;;26.05;100.00
32324;BME280;25666;44.350;9.222;2023-09-19T12:52:53;101514.84;;;26.03;100.00
32324;BME280;25666;44.350;9.222;2023-09-19T12:58:12;101516.28;;;26.15;100.00
32324;BME280;25666;44.350;9.222;2023-09-19T13:00:43;101522.94;;;26.08;100.00
32324;BME280;25666;44.350;9.222;2023-09-19T13:05:57;101516.38;;;25.88;100.00
32324;BME280;25666;44.350;9.222;2023-09-19T13:08:29;101522.16;;;25.85;100.00
32324;BME280;25666;44.350;9.222;2023-09-19T13:13:40;101523.41;;;25.84;100.00
32324;BME280;25666;44.350;9.222;2023-09-19T13:16:07;101522.13;;;25.65;100.00
32324;BME280;25666;44.350;9.222;2023-09-19T13:19:03;101524.41;;;25.50;100.00
32324;BME280;25666;44.350;9.222;2023-09-19T13:21:34;101529.31;;;25.50;100.00
32324;BME280;25666;44.350;9.222;2023-09-19T13:24:19;101525.31;;;25.44;100.00
32324;BME280;25666;44.350;9.222;2023-09-19T13:26:46;101522.56;;;25.40;100.00
32324;BME280;25666;44.350;9.222;2023-09-19T13:29:11;101518.25;;;25.29;100.00
32324;BME280;25666;44.350;9.222;2023-09-19T13:31:37;101514.94;;;25.34;100.00
32324;BME280;25666;44.350;9.222;2023-09-19T13:34:07;101523.09;;;25.32;100.00
32324;BME280;25666;44.350;9.222;2023-09-19T13:36:32;101525.41;;;25.40;100.00
32324;BME280;25666;44.350;9.222;2023-09-19T13:38:59;101523.84;;;25.36;100.00
32324;BME280;25666;44.350;9.222;2023-09-19T13:41:25;101525.50;;;25.33;100.00
32324;BME280;25666;44.350;9.222;2023-09-19T13:43:51;101526.38;;;25.30;100.00
32324;BME280;25666;44.350;9.222;2023-09-19T13:46:18;101521.16;;;25.25;100.00
32324;BME280;25666;44.350;9.222;2023-09-19T13:48:51;101517.25;;;25.16;100.00
32324;BME280;25666;44.350;9.222;2023-09-19T13:51:20;101516.81;;;25.17;100.00
32324;BME280;25666;44.350;9.222;2023-09-19T13:53:48;101525.44;;;25.14;100.00